Terminal Aerodrome Forecast
Issued by NWS

Home | Current Version | Previous Version | Text Only | Print | Product List | Glossary On
Versions: 1 2 3 4 5 6 7 8 9 10 11 12 13 14 15 16
000
FTUS45 KABQ 231100
TAFROW
TAF
KROW 231139Z 2312/2412 VRB05KT P6SM FEW100 BKN150
     FM231800 12011KT P6SM SCT110
     FM240100 15008KT P6SM SCT140=

USA.gov is the U.S. government's official web portal to all federal, state and local government web resources and services.